Terminal Aerodrome Forecast
Issued by NWS

Home | Current Version | Previous Version | Text Only | Print | Product List | Glossary On
Versions: 1 2 3 4 5 6 7 8 9 10 11 12 13
000
FTUS41 KPHI 051136
TAFPNE
TAF
KPNE 051136Z 0512/0612 VRB04KT 4SM BR OVC006
     FM051600 26008KT P6SM SCT015 OVC025
     FM051800 30010KT P6SM BKN040
     FM060000 32006KT P6SM SCT040
     FM060600 35004KT P6SM SCT250=

USA.gov is the U.S. government's official web portal to all federal, state and local government web resources and services.